This is the latest recevied weather packets stored in our database for station/object KI6AOK. If no packets are shown the sender has not sent any weather packets the latest 10 day(s).
| Time | Temp. | Humidity | Pressure | Rain* | Wind** | Luminosity | Snow |
|---|---|---|---|---|---|---|---|
| 1777845885 | 22.78° C | 49% | 1013.2 hPa | 0 mm | - | 366 W/m² | - |
| 1777845582 | 21.67° C | 51% | 1013.2 hPa | 0 mm | - | 737 W/m² | - |
| 1777845279 | 21.11° C | 53% | 1013.4 hPa | 0 mm | - | 789 W/m² | - |
| 1777844977 | 21.11° C | 54% | 1013.5 hPa | 0 mm | - | 840 W/m² | - |
| 1777844675 | 21.67° C | 51% | 1013.4 hPa | 0 mm | - | 288 W/m² | - |
| 1777844372 | 22.22° C | 51% | 1013.4 hPa | 0 mm | - | 714 W/m² | - |
| 1777844070 | 21.67° C | 51% | 1013.3 hPa | 0 mm | - | 823 W/m² | - |
| 1777843766 | 20.56° C | 54% | 1013.5 hPa | 0 mm | - | 833 W/m² | - |
| 1777843464 | 21.67° C | 53% | 1013.4 hPa | 0 mm | - | 314 W/m² | - |
| 1777843161 | 21.11° C | 53% | 1013.5 hPa | 0 mm | - | 770 W/m² | - |
| 1777842857 | 21.11° C | 54% | 1013.5 hPa | 0 mm | - | 870 W/m² | - |
| 1777842553 | 20° C | 58% | 1013.6 hPa | 0 mm | - | 713 W/m² | - |
| 1777842251 | 21.11° C | 55% | 1013.6 hPa | 0 mm | - | 405 W/m² | - |
| 1777841950 | 20.56° C | 55% | 1013.6 hPa | 0 mm | - | 618 W/m² | - |
| 1777841648 | 21.11° C | 55% | 1013.7 hPa | 0 mm | - | 503 W/m² | - |
| 1777841344 | 20.56° C | 56% | 1013.6 hPa | 0 mm | - | 1109 W/m² | - |
| 1777841041 | 20° C | 56% | 1013.7 hPa | 0 mm | - | 992 W/m² | - |
| 1777840738 | 20.56° C | 55% | 1013.7 hPa | 0 mm | - | 673 W/m² | - |
| 1777840436 | 20° C | 56% | 1013.7 hPa | 0 mm | - | 473 W/m² | - |
| 1777840132 | 19.44° C | 58% | 1013.9 hPa | 0 mm | - | 548 W/m² | - |
| 1777839831 | 19.44° C | 57% | 1013.9 hPa | 0 mm | - | 388 W/m² | - |
| 1777839529 | 19.44° C | 57% | 1013.7 hPa | 0 mm | - | 364 W/m² | - |
| 1777839225 | 19.44° C | 57% | 1013.8 hPa | 0 mm | - | 337 W/m² | - |
| 1777838923 | 20° C | 56% | 1013.8 hPa | 0 mm | - | 281 W/m² | - |
| 1777838618 | 20° C | 57% | 1013.8 hPa | 0 mm | - | 345 W/m² | - |
* Rain latest hour (hover to see other rain measurements)
** Current wind speed in m/s (hover to see current wind gust speed)